Time,TemperatureF,DewpointF,PressureIn,WindDirection,WindDirectionDegrees,WindSpeedMPH,WindSpeedGustMPH,Humidity,HourlyPrecipIn,Conditions,Clouds,dailyrainin,SoftwareType,DateUTC
2013-03-14 00:00:00,37.2,-9.2,30.12,NW,323,2.0,10.0,13,0.00,CLR,OVC,0.00,WeatherDisplay:10.37,2013-03-14 04:00:00,
2013-03-14 00:05:00,37.0,-9.4,30.12,NW,306,5.0,10.0,13,0.00,CLR,OVC,0.00,WeatherDisplay:10.37,2013-03-14 04:05:00,
2013-03-14 00:10:00,37.0,-9.4,30.12,NW,309,5.0,7.0,13,0.00,CLR,OVC,0.00,WeatherDisplay:10.37,2013-03-14 04:10:00,
2013-03-14 00:15:00,37.0,-9.4,30.12,NNW,332,0.0,5.0,13,0.00,CLR,OVC,0.00,WeatherDisplay:10.37,2013-03-14 04:15:00,
2013-03-14 00:20:00,36.9,-9.5,30.12,NW,321,3.0,6.0,13,0.00,CLR,OVC,0.00,WeatherDisplay:10.37,2013-03-14 04:20:00,
2013-03-14 00:30:00,36.7,-9.7,30.12,NNW,338,0.0,6.0,13,0.00,CLR,OVC,0.00,WeatherDisplay:10.37,2013-03-14 04:30:00,
2013-03-14 00:40:00,36.5,-9.8,30.12,NW,317,6.0,12.0,13,0.00,CLR,OVC,0.00,WeatherDisplay:10.37,2013-03-14 04:40:00,
2013-03-14 00:45:00,36.3,-9.9,30.12,NNW,339,1.0,5.0,13,0.00,CLR,OVC,0.00,WeatherDisplay:10.37,2013-03-14 04:45:00,
2013-03-14 00:50:00,36.3,-9.9,30.12,NW,316,5.0,7.0,13,0.00,CLR,OVC,0.00,WeatherDisplay:10.37,2013-03-14 04:50:00,
2013-03-14 01:00:00,36.3,-9.9,30.15,NW,319,3.0,10.0,13,0.00,CLR,OVC,0.00,WeatherDisplay:10.37,2013-03-14 05:00:00,
2013-03-14 01:05:00,36.1,-10.1,30.15,WNW,300,3.0,9.0,13,0.00,CLR,OVC,0.00,WeatherDisplay:10.37,2013-03-14 05:05:00,
2013-03-14 01:10:00,36.1,-10.1,30.15,NW,308,0.0,9.0,13,0.00,CLR,OVC,0.00,WeatherDisplay:10.37,2013-03-14 05:10:00,
2013-03-14 01:20:00,35.8,-10.4,30.15,WNW,298,0.0,0.0,13,0.00,CLR,OVC,0.00,WeatherDisplay:10.37,2013-03-14 05:20:00,
2013-03-14 01:30:00,35.2,-10.8,30.15,North,4,0.0,5.0,13,0.00,CLR,OVC,0.00,WeatherDisplay:10.37,2013-03-14 05:30:00,
2013-03-14 01:40:00,34.7,-11.2,30.15,North,358,1.0,5.0,13,0.00,CLR,OVC,0.00,WeatherDisplay:10.37,2013-03-14 05:40:00,
2013-03-14 01:50:00,34.3,-10.0,30.15,North,360,0.0,5.0,14,0.00,CLR,OVC,0.00,WeatherDisplay:10.37,2013-03-14 05:50:00,
2013-03-14 02:00:00,34.0,-10.3,30.15,North,11,0.0,4.0,14,0.00,CLR,OVC,0.00,WeatherDisplay:10.37,2013-03-14 06:00:00,
2013-03-14 02:05:00,34.0,-10.3,30.15,North,357,0.0,0.0,14,0.00,CLR,OVC,0.00,WeatherDisplay:10.37,2013-03-14 06:05:00,
2013-03-14 02:10:00,33.8,-10.5,30.15,West,275,3.0,6.0,14,0.00,CLR,OVC,0.00,WeatherDisplay:10.37,2013-03-14 06:10:00,
2013-03-14 02:20:00,33.6,-10.6,30.15,SE,124,0.0,4.0,14,0.00,CLR,OVC,0.00,WeatherDisplay:10.37,2013-03-14 06:20:00,
2013-03-14 02:30:00,33.3,-6.9,30.15,NNW,339,2.0,4.0,17,0.00,CLR,OVC,0.00,WeatherDisplay:10.37,2013-03-14 06:30:00,
2013-03-14 02:40:00,33.1,-7.1,30.15,North,9,1.0,8.0,17,0.00,CLR,OVC,0.00,WeatherDisplay:10.37,2013-03-14 06:40:00,
2013-03-14 02:50:00,32.9,-7.2,30.15,North,350,0.0,6.0,17,0.00,CLR,OVC,0.00,WeatherDisplay:10.37,2013-03-14 06:50:00,
2013-03-14 03:00:00,32.7,-7.4,30.15,NE,36,1.0,7.0,17,0.00,CLR,OVC,0.00,WeatherDisplay:10.37,2013-03-14 07:00:00,
2013-03-14 03:05:00,32.5,-5.2,30.15,North,10,1.0,6.0,19,0.00,CLR,OVC,0.00,WeatherDisplay:10.37,2013-03-14 07:05:00,
2013-03-14 03:10:00,32.5,-5.2,30.15,North,352,0.0,5.0,19,0.00,CLR,OVC,0.00,WeatherDisplay:10.37,2013-03-14 07:10:00,
2013-03-14 03:20:00,32.4,-5.4,30.15,NNE,18,0.0,5.0,19,0.00,CLR,OVC,0.00,WeatherDisplay:10.37,2013-03-14 07:20:00,
2013-03-14 03:30:00,32.2,-5.5,30.18,NNE,27,0.0,6.0,19,0.00,CLR,OVC,0.00,WeatherDisplay:10.37,2013-03-14 07:30:00,
2013-03-14 03:40:00,32.0,-5.7,30.18,NNW,348,0.0,5.0,19,0.00,CLR,OVC,0.00,WeatherDisplay:10.37,2013-03-14 07:40:00,
2013-03-14 03:50:00,32.0,-5.7,30.18,NNW,333,1.0,5.0,19,0.00,CLR,OVC,0.00,WeatherDisplay:10.37,2013-03-14 07:50:00,
2013-03-14 04:00:00,31.8,-5.8,30.18,NNW,343,0.0,7.0,19,0.00,CLR,OVC,0.00,WeatherDisplay:10.37,2013-03-14 08:00:00,
2013-03-14 04:05:00,31.6,-6.0,30.18,NNW,339,0.0,0.0,19,0.00,CLR,OVC,0.00,WeatherDisplay:10.37,2013-03-14 08:05:00,
2013-03-14 04:10:00,31.6,-6.0,30.18,NW,310,0.0,6.0,19,0.00,CLR,OVC,0.00,WeatherDisplay:10.37,2013-03-14 08:10:00,
2013-03-14 04:20:00,31.5,-6.1,30.18,North,11,0.0,5.0,19,0.00,CLR,OVC,0.00,WeatherDisplay:10.37,2013-03-14 08:20:00,
2013-03-14 04:30:00,31.3,-4.2,30.18,NNW,343,1.0,5.0,21,0.00,CLR,OVC,0.00,WeatherDisplay:10.37,2013-03-14 08:30:00,
2013-03-14 04:40:00,31.1,-4.4,30.18,West,272,0.0,3.0,21,0.00,CLR,OVC,0.00,WeatherDisplay:10.37,2013-03-14 08:40:00,
2013-03-14 04:50:00,30.9,-4.5,30.18,ENE,65,0.0,5.0,21,0.00,CLR,OVC,0.00,WeatherDisplay:10.37,2013-03-14 08:50:00,
2013-03-14 05:00:00,30.7,-4.7,30.18,SSW,199,0.0,0.0,21,0.00,CLR,OVC,0.00,WeatherDisplay:10.37,2013-03-14 09:00:00,
2013-03-14 05:05:00,30.6,-4.8,30.18,NW,325,0.0,6.0,21,0.00,CLR,OVC,0.00,WeatherDisplay:10.37,2013-03-14 09:05:00,
2013-03-14 05:10:00,30.6,-4.8,30.18,North,349,0.0,0.0,21,0.00,CLR,OVC,0.00,WeatherDisplay:10.37,2013-03-14 09:10:00,
2013-03-14 05:20:00,30.3,-5.1,30.18,North,350,0.0,6.0,21,0.00,CLR,OVC,0.00,WeatherDisplay:10.37,2013-03-14 09:20:00,
2013-03-14 05:30:00,30.2,-5.1,30.18,North,349,2.0,7.0,21,0.00,CLR,OVC,0.00,WeatherDisplay:10.37,2013-03-14 09:30:00,
2013-03-14 05:40:00,30.0,-5.3,30.18,NNW,334,0.0,0.0,21,0.00,CLR,OVC,0.00,WeatherDisplay:10.37,2013-03-14 09:40:00,
2013-03-14 05:50:00,29.8,-1.8,30.18,NNW,341,0.0,8.0,25,0.00,CLR,OVC,0.00,WeatherDisplay:10.37,2013-03-14 09:50:00,
2013-03-14 06:00:00,29.5,-2.1,30.18,North,351,1.0,7.0,25,0.00,CLR,OVC,0.00,WeatherDisplay:10.37,2013-03-14 10:00:00,
2013-03-14 06:05:00,29.5,-2.1,30.18,NNE,22,0.0,6.0,25,0.00,CLR,OVC,0.00,WeatherDisplay:10.37,2013-03-14 10:05:00,
2013-03-14 06:10:00,29.5,-2.1,30.18,East,80,0.0,0.0,25,0.00,CLR,OVC,0.00,WeatherDisplay:10.37,2013-03-14 10:10:00,
2013-03-14 06:20:00,29.3,0.2,30.18,NE,41,0.0,0.0,28,0.00,CLR,OVC,0.00,WeatherDisplay:10.37,2013-03-14 10:20:00,
2013-03-14 06:30:00,28.9,-0.1,30.21,NNE,16,0.0,0.0,28,0.00,CLR,OVC,0.00,WeatherDisplay:10.37,2013-03-14 10:30:00,
2013-03-14 06:40:00,28.6,0.3,30.21,NNW,335,0.0,0.0,29,0.00,CLR,OVC,0.00,WeatherDisplay:10.37,2013-03-14 10:40:00,
2013-03-14 06:50:00,28.4,0.1,30.21,NW,323,0.0,7.0,29,0.00,CLR,OVC,0.00,WeatherDisplay:10.37,2013-03-14 10:50:00,
2013-03-14 07:00:00,28.4,0.1,30.21,NNW,328,0.0,0.0,29,0.00,CLR,OVC,0.00,WeatherDisplay:10.37,2013-03-14 11:00:00,
2013-03-14 07:05:00,28.4,0.1,30.21,NNW,332,0.0,0.0,29,0.00,CLR,OVC,0.00,WeatherDisplay:10.37,2013-03-14 11:05:00,
2013-03-14 07:10:00,28.2,0.0,30.21,NNW,333,0.0,0.0,29,0.00,CLR,OVC,0.00,WeatherDisplay:10.37,2013-03-14 11:10:00,
2013-03-14 07:20:00,28.0,1.2,30.21,NNW,340,0.0,0.0,31,0.00,CLR,OVC,0.00,WeatherDisplay:10.37,2013-03-14 11:20:00,
2013-03-14 07:30:00,27.9,1.1,30.21,NNW,334,0.0,0.0,31,0.00,CLR,OVC,0.00,WeatherDisplay:10.37,2013-03-14 11:30:00,
2013-03-14 07:40:00,27.7,0.9,30.24,North,349,0.0,0.0,31,0.00,CLR,OVC,0.00,WeatherDisplay:10.37,2013-03-14 11:40:00,
2013-03-14 07:50:00,27.7,0.9,30.24,North,353,0.0,0.0,31,0.00,CLR,OVC,0.00,WeatherDisplay:10.37,2013-03-14 11:50:00,
2013-03-14 08:00:00,27.5,1.4,30.24,North,353,0.0,0.0,32,0.00,CLR,OVC,0.00,WeatherDisplay:10.37,2013-03-14 12:00:00,
2013-03-14 08:05:00,27.3,2.0,30.24,North,350,0.0,0.0,33,0.00,CLR,OVC,0.00,WeatherDisplay:10.37,2013-03-14 12:05:00,
2013-03-14 08:10:00,27.3,2.0,30.24,NNW,334,0.0,0.0,33,0.00,CLR,OVC,0.00,WeatherDisplay:10.37,2013-03-14 12:10:00,
2013-03-14 08:20:00,27.5,2.1,30.24,NNW,333,0.0,6.0,33,0.00,CLR,OVC,0.00,WeatherDisplay:10.37,2013-03-14 12:20:00,
2013-03-14 08:30:00,28.4,3.6,30.24,NW,321,3.0,7.0,34,0.00,CLR,OVC,0.00,WeatherDisplay:10.37,2013-03-14 12:30:00,
2013-03-14 08:40:00,29.5,3.9,30.24,NW,314,1.0,7.0,33,0.00,CLR,OVC,0.00,WeatherDisplay:10.37,2013-03-14 12:40:00,
2013-03-14 08:50:00,30.6,4.8,30.24,NW,321,1.0,8.0,33,0.00,CLR,OVC,0.00,WeatherDisplay:10.37,2013-03-14 12:50:00,
2013-03-14 09:00:00,31.6,5.1,30.24,NW,311,2.0,10.0,32,0.00,CLR,OVC,0.00,WeatherDisplay:10.37,2013-03-14 13:00:00,
2013-03-14 09:05:00,32.0,5.4,30.24,NW,305,2.0,10.0,32,0.00,CLR,OVC,0.00,WeatherDisplay:10.37,2013-03-14 13:05:00,
2013-03-14 09:10:00,32.4,5.0,30.24,NW,313,3.0,10.0,31,0.00,CLR,OVC,0.00,WeatherDisplay:10.37,2013-03-14 13:10:00,
2013-03-14 09:20:00,33.2,4.3,30.24,WNW,294,1.0,9.0,29,0.00,CLR,OVC,0.00,WeatherDisplay:10.37,2013-03-14 13:20:00,
2013-03-14 09:30:00,34.2,5.2,30.24,WNW,297,7.0,20.0,29,0.00,CLR,OVC,0.00,WeatherDisplay:10.37,2013-03-14 13:30:00,
2013-03-14 09:40:00,34.9,5.0,30.24,NW,321,7.0,12.0,28,0.00,CLR,OVC,0.00,WeatherDisplay:10.37,2013-03-14 13:40:00,
2013-03-14 09:50:00,35.8,5.8,30.24,NW,316,2.0,13.0,28,0.00,CLR,OVC,0.00,WeatherDisplay:10.37,2013-03-14 13:50:00,
2013-03-14 09:55:00,36.3,5.5,30.24,NNW,327,5.0,12.0,27,0.00,CLR,OVC,0.00,WeatherDisplay:10.37,2013-03-14 13:55:00,
2013-03-14 10:05:00,37.8,6.7,30.24,NNW,327,1.0,9.0,27,0.00,CLR,OVC,0.00,WeatherDisplay:10.37,2013-03-14 14:05:00,
2013-03-14 10:10:00,38.5,7.4,30.24,NW,324,7.0,10.0,27,0.00,CLR,OVC,0.00,WeatherDisplay:10.37,2013-03-14 14:10:00,
2013-03-14 10:20:00,39.4,7.3,30.24,NW,307,6.0,10.0,26,0.00,CLR,OVC,0.00,WeatherDisplay:10.37,2013-03-14 14:20:00,
2013-03-14 10:30:00,40.2,7.1,30.24,NW,316,1.0,8.0,25,0.00,CLR,OVC,0.00,WeatherDisplay:10.37,2013-03-14 14:30:00,
2013-03-14 10:40:00,40.5,5.5,30.24,NNW,327,0.0,8.0,23,0.00,CLR,OVC,0.00,WeatherDisplay:10.37,2013-03-14 14:40:00,
2013-03-14 10:50:00,40.6,1.5,30.25,North,359,3.0,14.0,19,0.00,CLR,OVC,0.00,WeatherDisplay:10.37,2013-03-14 14:50:00,
2013-03-14 11:00:00,40.8,1.7,30.27,NW,323,5.0,10.0,19,0.00,CLR,OVC,0.00,WeatherDisplay:10.37,2013-03-14 15:00:00,
2013-03-14 11:05:00,41.2,2.0,30.26,NNW,339,2.0,10.0,19,0.00,CLR,OVC,0.00,WeatherDisplay:10.37,2013-03-14 15:05:00,
2013-03-14 11:10:00,41.6,2.3,30.24,NW,326,3.0,8.0,19,0.00,CLR,OVC,0.00,WeatherDisplay:10.37,2013-03-14 15:10:00,
2013-03-14 11:20:00,42.6,3.2,30.24,West,267,5.0,10.0,19,0.00,CLR,OVC,0.00,WeatherDisplay:10.37,2013-03-14 15:20:00,
2013-03-14 11:25:00,43.2,3.6,30.24,NW,304,6.0,9.0,19,0.00,CLR,OVC,0.00,WeatherDisplay:10.37,2013-03-14 15:25:00,
2013-03-14 11:30:00,43.7,1.6,30.24,NW,319,3.0,7.0,17,0.00,CLR,OVC,0.00,WeatherDisplay:10.37,2013-03-14 15:30:00,
2013-03-14 11:40:00,44.4,2.2,30.24,NW,317,2.0,9.0,17,0.00,CLR,OVC,0.00,WeatherDisplay:10.37,2013-03-14 15:40:00,
2013-03-14 11:50:00,45.3,-1.2,30.24,NW,307,2.0,5.0,14,0.00,CLR,OVC,0.00,WeatherDisplay:10.37,2013-03-14 15:50:00,
2013-03-14 12:00:00,46.2,-2.0,30.24,WNW,301,1.0,7.0,13,0.00,CLR,OVC,0.00,WeatherDisplay:10.37,2013-03-14 16:00:00,
2013-03-14 12:05:00,46.2,-2.0,30.24,WNW,301,1.0,8.0,13,0.00,CLR,OVC,0.00,WeatherDisplay:10.37,2013-03-14 16:05:00,
2013-03-14 12:10:00,46.2,-2.0,30.24,NW,317,5.0,13.0,13,0.00,CLR,OVC,0.00,WeatherDisplay:10.37,2013-03-14 16:10:00,
2013-03-14 12:20:00,46.9,-1.5,30.24,WNW,292,1.0,5.0,13,0.00,CLR,OVC,0.00,WeatherDisplay:10.37,2013-03-14 16:20:00,
2013-03-14 12:30:00,47.4,-1.1,30.24,NW,318,5.0,10.0,13,0.00,CLR,OVC,0.00,WeatherDisplay:10.37,2013-03-14 16:30:00,
2013-03-14 12:40:00,48.4,-0.3,30.24,NW,316,0.0,5.0,13,0.00,CLR,OVC,0.00,WeatherDisplay:10.37,2013-03-14 16:40:00,
2013-03-14 12:50:00,48.9,0.1,30.24,NNW,337,0.0,7.0,13,0.00,CLR,OVC,0.00,WeatherDisplay:10.37,2013-03-14 16:50:00,
2013-03-14 13:00:00,50.2,1.1,30.24,NW,309,5.0,8.0,13,0.00,CLR,OVC,0.00,WeatherDisplay:10.37,2013-03-14 17:00:00,
2013-03-14 13:05:00,50.7,-0.2,30.24,WNW,300,5.0,8.0,12,0.00,CLR,OVC,0.00,WeatherDisplay:10.37,2013-03-14 17:05:00,
2013-03-14 13:10:00,51.1,-5.9,30.24,WNW,302,5.0,9.0,9,0.00,CLR,OVC,0.00,WeatherDisplay:10.37,2013-03-14 17:10:00,
2013-03-14 13:20:00,51.6,-5.5,30.23,NW,305,5.0,9.0,9,0.00,CLR,OVC,0.00,WeatherDisplay:10.37,2013-03-14 17:20:00,
2013-03-14 13:30:00,51.3,-5.8,30.21,NW,315,2.0,5.0,9,0.00,CLR,OVC,0.00,WeatherDisplay:10.37,2013-03-14 17:30:00,
2013-03-14 13:40:00,51.8,-5.4,30.21,NW,323,0.0,9.0,9,0.00,CLR,OVC,0.00,WeatherDisplay:10.37,2013-03-14 17:40:00,
2013-03-14 13:50:00,52.5,-10.0,30.21,WNW,302,2.0,10.0,7,0.00,CLR,OVC,0.00,WeatherDisplay:10.37,2013-03-14 17:50:00,
2013-03-14 14:00:00,53.2,-9.5,30.21,NW,304,3.0,9.0,7,0.00,CLR,OVC,0.00,WeatherDisplay:10.37,2013-03-14 18:00:00,
2013-03-14 14:05:00,53.1,-9.6,30.21,NW,306,2.0,10.0,7,0.00,CLR,OVC,0.00,WeatherDisplay:10.37,2013-03-14 18:05:00,
2013-03-14 14:10:00,52.3,-5.0,30.21,NW,326,5.0,7.0,9,0.00,CLR,OVC,0.00,WeatherDisplay:10.37,2013-03-14 18:10:00,
2013-03-14 14:20:00,51.3,-5.8,30.21,NW,313,3.0,7.0,9,0.00,CLR,OVC,0.00,WeatherDisplay:10.37,2013-03-14 18:20:00,
2013-03-14 14:30:00,52.0,-5.2,30.21,NW,308,5.0,12.0,9,0.00,CLR,OVC,0.00,WeatherDisplay:10.37,2013-03-14 18:30:00,
2013-03-14 14:40:00,53.2,-9.5,30.18,WNW,290,5.0,9.0,7,0.00,CLR,OVC,0.00,WeatherDisplay:10.37,2013-03-14 18:40:00,
2013-03-14 14:50:00,54.5,-8.5,30.18,North,360,0.0,5.0,7,0.00,CLR,OVC,0.00,WeatherDisplay:10.37,2013-03-14 18:50:00,
2013-03-14 14:55:00,54.9,-8.2,30.18,NNW,329,0.0,7.0,7,0.00,CLR,OVC,0.00,WeatherDisplay:10.37,2013-03-14 18:55:00,
2013-03-14 15:05:00,55.0,-8.1,30.18,NNW,337,3.0,8.0,7,0.00,CLR,OVC,0.00,WeatherDisplay:10.37,2013-03-14 19:05:00,
2013-03-14 15:10:00,54.5,-25.1,30.15,NNW,337,7.0,13.0,3,0.00,CLR,OVC,0.00,WeatherDisplay:10.37,2013-03-14 19:10:00,
2013-03-14 15:15:00,54.3,-8.6,30.15,WNW,301,1.0,12.0,7,0.00,CLR,OVC,0.00,WeatherDisplay:10.37,2013-03-14 19:15:00,
2013-03-14 15:20:00,54.5,-25.1,30.15,WNW,287,3.0,10.0,3,0.00,CLR,OVC,0.00,WeatherDisplay:10.37,2013-03-14 19:20:00,
2013-03-14 15:30:00,55.6,-7.7,30.15,NW,305,3.0,8.0,7,0.00,CLR,OVC,0.00,WeatherDisplay:10.37,2013-03-14 19:30:00,
2013-03-14 15:40:00,55.9,-7.4,30.15,WSW,256,1.0,5.0,7,0.00,CLR,OVC,0.00,WeatherDisplay:10.37,2013-03-14 19:40:00,
2013-03-14 15:50:00,55.6,-24.4,30.15,NW,310,1.0,9.0,3,0.00,CLR,OVC,0.00,WeatherDisplay:10.37,2013-03-14 19:50:00,
2013-03-14 16:00:00,55.4,-24.5,30.15,WNW,301,0.0,7.0,3,0.00,CLR,OVC,0.00,WeatherDisplay:10.37,2013-03-14 20:00:00,
2013-03-14 16:05:00,55.4,-24.5,30.15,WNW,291,1.0,7.0,3,0.00,CLR,OVC,0.00,WeatherDisplay:10.37,2013-03-14 20:05:00,
2013-03-14 16:10:00,55.2,-24.6,30.15,NW,308,5.0,10.0,3,0.00,CLR,OVC,0.00,WeatherDisplay:10.37,2013-03-14 20:10:00,
2013-03-14 16:20:00,54.7,-25.0,30.15,NNW,328,3.0,10.0,3,0.00,CLR,OVC,0.00,WeatherDisplay:10.37,2013-03-14 20:20:00,
2013-03-14 16:30:00,54.1,-19.9,30.15,NW,318,0.0,8.0,4,0.00,CLR,OVC,0.00,WeatherDisplay:10.37,2013-03-14 20:30:00,
2013-03-14 16:40:00,53.9,-20.1,30.15,NW,311,0.0,8.0,4,0.00,CLR,OVC,0.00,WeatherDisplay:10.37,2013-03-14 20:40:00,
2013-03-14 16:50:00,54.0,-20.0,30.15,NW,313,5.0,7.0,4,0.00,CLR,OVC,0.00,WeatherDisplay:10.37,2013-03-14 20:50:00,
2013-03-14 17:00:00,53.5,-20.3,30.12,NNE,19,0.0,5.0,4,0.00,CLR,OVC,0.00,WeatherDisplay:10.37,2013-03-14 21:00:00,
2013-03-14 17:05:00,53.2,-20.5,30.12,NW,306,0.0,7.0,4,0.00,CLR,OVC,0.00,WeatherDisplay:10.37,2013-03-14 21:05:00,
2013-03-14 17:10:00,52.9,-20.8,30.12,NW,322,7.0,10.0,4,0.00,CLR,OVC,0.00,WeatherDisplay:10.37,2013-03-14 21:10:00,
2013-03-14 17:20:00,52.9,-20.8,30.12,NW,318,3.0,7.0,4,0.00,CLR,OVC,0.00,WeatherDisplay:10.37,2013-03-14 21:20:00,
2013-03-14 17:30:00,52.5,-21.0,30.12,NW,325,0.0,6.0,4,0.00,CLR,OVC,0.00,WeatherDisplay:10.37,2013-03-14 21:30:00,
2013-03-14 17:40:00,52.5,-21.0,30.12,NW,325,1.0,7.0,4,0.00,CLR,OVC,0.00,WeatherDisplay:10.37,2013-03-14 21:40:00,
2013-03-14 17:50:00,52.3,-21.2,30.12,NW,311,3.0,7.0,4,0.00,CLR,OVC,0.00,WeatherDisplay:10.37,2013-03-14 21:50:00,
2013-03-14 18:00:00,51.6,-21.7,30.12,WNW,285,0.0,7.0,4,0.00,CLR,OVC,0.00,WeatherDisplay:10.37,2013-03-14 22:00:00,
2013-03-14 18:05:00,51.3,-21.9,30.12,WNW,300,1.0,6.0,4,0.00,CLR,OVC,0.00,WeatherDisplay:10.37,2013-03-14 22:05:00,
2013-03-14 18:10:00,51.1,-22.0,30.12,NNW,337,3.0,6.0,4,0.00,CLR,OVC,0.00,WeatherDisplay:10.37,2013-03-14 22:10:00,
2013-03-14 18:20:00,50.7,-22.3,30.12,NNW,328,0.0,0.0,4,0.00,CLR,OVC,0.00,WeatherDisplay:10.37,2013-03-14 22:20:00,
2013-03-14 18:30:00,50.3,-14.7,30.15,WNW,298,0.0,0.0,6,0.00,CLR,OVC,0.00,WeatherDisplay:10.37,2013-03-14 22:30:00,
2013-03-14 18:40:00,49.7,-15.2,30.15,WNW,290,1.0,5.0,6,0.00,CLR,OVC,0.00,WeatherDisplay:10.37,2013-03-14 22:40:00,
2013-03-14 18:50:00,49.3,-15.5,30.14,NW,324,0.0,0.0,6,0.00,CLR,OVC,0.00,WeatherDisplay:10.37,2013-03-14 22:50:00,
2013-03-14 19:00:00,48.9,-15.8,30.12,NW,320,0.0,0.0,6,0.00,CLR,OVC,0.00,WeatherDisplay:10.37,2013-03-14 23:00:00,
2013-03-14 19:05:00,48.6,-16.0,30.12,NW,321,0.0,0.0,6,0.00,CLR,OVC,0.00,WeatherDisplay:10.37,2013-03-14 23:05:00,
2013-03-14 19:10:00,48.3,-16.2,30.12,NNW,331,0.0,0.0,6,0.00,CLR,OVC,0.00,WeatherDisplay:10.37,2013-03-14 23:10:00,
2013-03-14 19:15:00,48.0,-16.4,30.12,NNW,337,0.0,0.0,6,0.00,CLR,OVC,0.00,WeatherDisplay:10.37,2013-03-14 23:15:00,
2013-03-14 19:20:00,47.8,-16.5,30.12,NNW,337,0.0,0.0,6,0.00,CLR,OVC,0.00,WeatherDisplay:10.37,2013-03-14 23:20:00,
2013-03-14 19:30:00,47.5,-16.8,30.12,NNW,337,0.0,0.0,6,0.00,CLR,OVC,0.00,WeatherDisplay:10.37,2013-03-14 23:30:00,
2013-03-14 19:40:00,46.4,-17.6,30.12,NNW,337,0.0,0.0,6,0.00,CLR,OVC,0.00,WeatherDisplay:10.37,2013-03-14 23:40:00,
2013-03-14 19:50:00,45.6,-18.2,30.12,NNW,337,0.0,0.0,6,0.00,CLR,OVC,0.00,WeatherDisplay:10.37,2013-03-14 23:50:00,
2013-03-14 20:00:00,45.0,-8.5,30.12,NNW,337,0.0,0.0,10,0.00,CLR,OVC,0.00,WeatherDisplay:10.37,2013-03-15 00:00:00,
2013-03-14 20:05:00,44.6,-8.8,30.12,NNW,337,0.0,0.0,10,0.00,CLR,OVC,0.00,WeatherDisplay:10.37,2013-03-15 00:05:00,
2013-03-14 20:10:00,44.2,-9.0,30.12,NNW,337,0.0,0.0,10,0.00,CLR,OVC,0.00,WeatherDisplay:10.37,2013-03-15 00:10:00,
2013-03-14 20:20:00,43.5,-9.6,30.12,NNW,337,0.0,0.0,10,0.00,CLR,OVC,0.00,WeatherDisplay:10.37,2013-03-15 00:20:00,
2013-03-14 20:30:00,42.8,-6.4,30.12,NNW,337,0.0,0.0,12,0.00,CLR,OVC,0.00,WeatherDisplay:10.37,2013-03-15 00:30:00,
2013-03-14 20:40:00,42.3,-6.8,30.12,NNW,337,0.0,0.0,12,0.00,CLR,OVC,0.00,WeatherDisplay:10.37,2013-03-15 00:40:00,
2013-03-14 20:50:00,41.6,-7.4,30.12,NNW,337,0.0,0.0,12,0.00,CLR,OVC,0.00,WeatherDisplay:10.37,2013-03-15 00:50:00,
2013-03-14 21:00:00,41.0,-1.9,30.15,NNW,337,0.0,0.0,16,0.00,CLR,OVC,0.00,WeatherDisplay:10.37,2013-03-15 01:00:00,
2013-03-14 21:05:00,40.6,-2.2,30.15,NNW,337,0.0,0.0,16,0.00,CLR,OVC,0.00,WeatherDisplay:10.37,2013-03-15 01:05:00,
2013-03-14 21:10:00,40.4,-2.3,30.15,NNW,337,0.0,0.0,16,0.00,CLR,OVC,0.00,WeatherDisplay:10.37,2013-03-15 01:10:00,
2013-03-14 21:20:00,39.9,-2.7,30.15,NNW,337,0.0,0.0,16,0.00,CLR,OVC,0.00,WeatherDisplay:10.37,2013-03-15 01:20:00,
2013-03-14 21:30:00,39.4,0.5,30.15,NNW,337,0.0,0.0,19,0.00,CLR,OVC,0.00,WeatherDisplay:10.37,2013-03-15 01:30:00,
2013-03-14 21:40:00,38.8,4.1,30.15,NNW,337,0.0,0.0,23,0.00,CLR,OVC,0.00,WeatherDisplay:10.37,2013-03-15 01:40:00,
2013-03-14 21:45:00,38.7,4.0,30.15,NNW,337,0.0,0.0,23,0.00,CLR,OVC,0.00,WeatherDisplay:10.37,2013-03-15 01:45:00,
2013-03-14 21:50:00,38.3,4.6,30.15,NNW,337,0.0,0.0,24,0.00,CLR,OVC,0.00,WeatherDisplay:10.37,2013-03-15 01:50:00,
2013-03-14 21:55:00,38.1,5.3,30.15,NNW,337,0.0,0.0,25,0.00,CLR,OVC,0.00,WeatherDisplay:10.37,2013-03-15 01:55:00,
2013-03-14 22:05:00,37.8,6.7,30.15,NNW,337,0.0,0.0,27,0.00,CLR,OVC,0.00,WeatherDisplay:10.37,2013-03-15 02:05:00,
2013-03-14 22:10:00,37.5,6.5,30.15,NNW,337,0.0,0.0,27,0.00,CLR,OVC,0.00,WeatherDisplay:10.37,2013-03-15 02:10:00,
2013-03-14 22:20:00,37.2,6.2,30.15,NNW,337,0.0,0.0,27,0.00,CLR,OVC,0.00,WeatherDisplay:10.37,2013-03-15 02:20:00,
2013-03-14 22:30:00,37.0,6.1,30.15,NNW,337,0.0,0.0,27,0.00,CLR,OVC,0.00,WeatherDisplay:10.37,2013-03-15 02:30:00,
2013-03-14 22:40:00,36.9,6.7,30.15,NNW,337,0.0,0.0,28,0.00,CLR,OVC,0.00,WeatherDisplay:10.37,2013-03-15 02:40:00,
2013-03-14 22:50:00,36.5,6.4,30.15,NNW,337,0.0,0.0,28,0.00,CLR,OVC,0.00,WeatherDisplay:10.37,2013-03-15 02:50:00,
2013-03-14 23:00:00,36.2,6.2,30.15,NNW,337,0.0,0.0,28,0.00,CLR,OVC,0.00,WeatherDisplay:10.37,2013-03-15 03:00:00,
2013-03-14 23:05:00,36.0,6.7,30.15,NNW,337,0.0,0.0,29,0.00,CLR,OVC,0.00,WeatherDisplay:10.37,2013-03-15 03:05:00,
2013-03-14 23:10:00,35.8,6.6,30.18,NNW,337,0.0,0.0,29,0.00,CLR,OVC,0.00,WeatherDisplay:10.37,2013-03-15 03:10:00,
2013-03-14 23:20:00,35.5,6.3,30.18,NNW,337,0.0,0.0,29,0.00,CLR,OVC,0.00,WeatherDisplay:10.37,2013-03-15 03:20:00,
2013-03-14 23:30:00,35.1,7.4,30.18,NNW,337,0.0,0.0,31,0.00,CLR,OVC,0.00,WeatherDisplay:10.37,2013-03-15 03:30:00,
2013-03-14 23:40:00,34.9,7.3,30.18,NNW,337,0.0,0.0,31,0.00,CLR,OVC,0.00,WeatherDisplay:10.37,2013-03-15 03:40:00,
2013-03-14 23:50:00,35.2,6.1,30.18,NNW,341,0.0,5.0,29,0.00,CLR,OVC,0.00,WeatherDisplay:10.37,2013-03-15 03:50:00,